Roswell, Georgia
Current Conditions -  °F | °C
As of 2:53 PM on Monday 26 Jan 2015 (Local Time) from KPDK Reporting Station
Overcast Overcast  
Wind Chill: 28°   Ceiling: 2100
Heat Index: 38°   Visibility: 10mi
Dew Point: 30°   Wind: 18mph
Humidity: 73%   Direction: 320°NW
Pressure: 29.85"   Gusts: 23mph
Location:  34.02°N, 84.36°W
Report Text: KPDK 261953Z 32016G20KT 10SM BKN021 OVC028 03/M01 A2985 RMK AO2 SLP118 T00331011
Loading
Personal Weather Stations






























Interactive Weather Map New forecast layout! Learn more

10-Day Weather Forecast

Advertisements
Track Severe Weather on mobile